createdAt,value
2022-11-29T00:01:34.047Z,27.95
2022-11-29T00:04:01.420Z,26.48
2022-11-29T00:06:33.195Z,26.70
2022-11-29T00:09:02.974Z,25.27
2022-11-29T00:11:51.425Z,26.40
2022-11-29T00:14:19.639Z,26.15
2022-11-29T00:16:50.899Z,30.52
2022-11-29T00:19:17.980Z,26.38
2022-11-29T00:21:44.545Z,26.98
2022-11-29T00:24:11.045Z,24.75
2022-11-29T00:26:37.758Z,28.05
2022-11-29T00:29:04.636Z,27.15
2022-11-29T00:31:33.383Z,26.48
2022-11-29T00:34:02.822Z,26.67
2022-11-29T00:36:31.690Z,25.70
2022-11-29T00:38:58.569Z,26.10
2022-11-29T00:41:29.843Z,27.23
2022-11-29T00:43:56.380Z,29.55
2022-11-29T00:46:23.090Z,26.13
2022-11-29T00:48:49.533Z,26.73
2022-11-29T00:51:16.046Z,25.77
2022-11-29T00:53:44.736Z,27.40
2022-11-29T00:56:11.214Z,27.55
2022-11-29T00:58:37.758Z,25.50
2022-11-29T01:01:05.022Z,26.30
2022-11-29T01:03:34.732Z,24.83
2022-11-29T01:06:03.140Z,26.00
2022-11-29T01:08:29.578Z,28.23
2022-11-29T01:11:08.177Z,26.40
2022-11-29T01:13:37.420Z,24.20
2022-11-29T01:16:05.586Z,28.73
2022-11-29T01:18:32.671Z,28.85
2022-11-29T01:21:05.560Z,29.58
2022-11-29T01:23:32.385Z,27.70
2022-11-29T01:26:01.365Z,27.52
2022-11-29T01:28:28.415Z,27.73
2022-11-29T01:30:55.410Z,26.55
2022-11-29T01:33:24.661Z,27.25
2022-11-29T01:35:53.203Z,27.08
2022-11-29T01:38:22.845Z,27.23
2022-11-29T01:41:20.808Z,27.58
2022-11-29T01:43:59.801Z,28.45
2022-11-29T01:46:28.587Z,29.42
2022-11-29T01:49:06.100Z,25.30
2022-11-29T01:51:34.862Z,28.50
2022-11-29T01:54:01.966Z,27.60
2022-11-29T01:56:30.341Z,26.35
2022-11-29T01:58:57.066Z,24.80
2022-11-29T02:01:24.094Z,28.13
2022-11-29T02:03:50.567Z,27.17
2022-11-29T02:06:17.645Z,26.52
2022-11-29T02:08:44.537Z,28.55
2022-11-29T02:11:26.413Z,29.15
2022-11-29T02:13:55.840Z,25.25
2022-11-29T02:16:22.239Z,28.88
2022-11-29T02:19:22.611Z,27.63
2022-11-29T02:21:55.976Z,27.23
2022-11-29T02:24:44.033Z,26.88
2022-11-29T02:27:47.841Z,24.48
2022-11-29T02:30:40.368Z,25.52
2022-11-29T02:33:28.400Z,25.42
2022-11-29T02:36:06.986Z,25.83
2022-11-29T02:38:48.675Z,25.20
2022-11-29T02:41:24.123Z,25.65
2022-11-29T02:44:20.852Z,27.08
2022-11-29T02:47:02.920Z,22.45
2022-11-29T02:49:38.431Z,23.20
2022-11-29T02:52:11.809Z,22.58
2022-11-29T02:54:54.675Z,23.45
2022-11-29T02:57:48.305Z,24.88
2022-11-29T03:00:23.018Z,25.23
2022-11-29T03:02:53.499Z,22.38
2022-11-29T03:05:31.403Z,28.85
2022-11-29T03:08:12.000Z,31.13
2022-11-29T03:11:07.822Z,30.23
2022-11-29T03:14:06.749Z,33.03
2022-11-29T03:16:43.095Z,30.52
2022-11-29T03:19:10.138Z,33.13
2022-11-29T03:21:56.183Z,30.73
2022-11-29T03:24:31.930Z,29.70
2022-11-29T03:27:06.696Z,32.47
2022-11-29T03:29:39.909Z,32.30
2022-11-29T03:32:33.590Z,32.55
2022-11-29T03:35:14.945Z,31.02
2022-11-29T03:38:14.622Z,32.45
2022-11-29T03:40:59.780Z,33.72
2022-11-29T03:43:55.165Z,30.58
2022-11-29T03:46:25.749Z,29.17
2022-11-29T03:48:59.398Z,30.05
2022-11-29T03:51:28.929Z,30.75
2022-11-29T03:54:02.623Z,31.30
2022-11-29T03:56:29.187Z,28.77
2022-11-29T03:59:05.312Z,26.73
2022-11-29T04:01:50.510Z,29.48
2022-11-29T04:04:28.966Z,30.15
2022-11-29T04:07:04.476Z,28.40
2022-11-29T04:09:52.258Z,30.00
2022-11-29T04:12:46.650Z,30.08
2022-11-29T04:15:16.045Z,29.63
2022-11-29T04:17:56.930Z,31.25
2022-11-29T04:20:52.610Z,32.22
2022-11-29T04:23:28.047Z,32.65
2022-11-29T04:26:00.931Z,30.55
2022-11-29T04:28:39.468Z,31.98
2022-11-29T04:31:23.074Z,30.88
2022-11-29T04:34:04.708Z,35.25
2022-11-29T04:36:50.094Z,32.45
2022-11-29T04:39:31.706Z,30.83
2022-11-29T04:42:50.218Z,30.77
2022-11-29T04:45:38.318Z,30.30
2022-11-29T04:48:28.997Z,34.15
2022-11-29T04:51:23.321Z,31.17
2022-11-29T04:56:31.572Z,35.45
2022-11-29T04:59:22.497Z,33.30
2022-11-29T05:02:07.914Z,31.20
2022-11-29T05:04:47.795Z,35.13
2022-11-29T05:07:23.540Z,36.50
2022-11-29T05:10:01.701Z,42.80
2022-11-29T05:12:28.177Z,40.00
2022-11-29T05:15:15.908Z,37.67
2022-11-29T05:17:58.242Z,35.72
2022-11-29T05:20:46.384Z,35.85
2022-11-29T05:23:23.174Z,35.00
2022-11-29T05:26:05.137Z,35.95
2022-11-29T05:29:10.597Z,33.97
2022-11-29T05:32:08.025Z,36.92
2022-11-29T05:34:49.087Z,33.53
2022-11-29T05:37:52.798Z,34.83
2022-11-29T05:41:07.434Z,40.13
2022-11-29T05:44:07.601Z,36.55
2022-11-29T05:46:39.847Z,34.53
2022-11-29T05:49:44.901Z,37.30
2022-11-29T05:52:14.432Z,34.75
2022-11-29T05:54:50.017Z,32.13
2022-11-29T05:57:22.537Z,34.85
2022-11-29T05:59:51.206Z,35.30
2022-11-29T06:02:26.938Z,36.88
2022-11-29T06:05:06.698Z,36.03
2022-11-29T06:07:48.402Z,37.00
2022-11-29T06:10:19.740Z,36.22
2022-11-29T06:13:03.331Z,35.97
2022-11-29T06:15:49.939Z,34.53
2022-11-29T06:18:32.257Z,32.17
2022-11-29T06:21:22.942Z,31.92
2022-11-29T06:24:20.439Z,35.03
2022-11-29T06:26:56.103Z,35.65
2022-11-29T06:29:35.131Z,34.85
2022-11-29T06:32:14.925Z,38.17
2022-11-29T06:34:49.045Z,35.00
2022-11-29T06:37:23.525Z,32.90
2022-11-29T06:39:50.454Z,32.80
2022-11-29T06:42:16.969Z,34.75
2022-11-29T06:44:44.086Z,34.40
2022-11-29T06:47:27.929Z,35.65
2022-11-29T06:50:04.172Z,36.13
2022-11-29T06:52:39.003Z,32.28
2022-11-29T06:55:14.445Z,37.60
2022-11-29T06:57:59.465Z,33.50
2022-11-29T07:00:31.828Z,34.88
2022-11-29T07:03:26.544Z,34.35
2022-11-29T07:05:53.405Z,33.78
2022-11-29T07:08:23.043Z,36.33
2022-11-29T07:10:53.274Z,31.05
2022-11-29T07:13:20.801Z,30.38
2022-11-29T07:16:11.626Z,33.78
2022-11-29T07:18:57.191Z,32.08
2022-11-29T07:21:33.856Z,34.67
2022-11-29T07:24:28.265Z,34.47
2022-11-29T07:27:15.625Z,38.92
2022-11-29T07:29:58.184Z,34.72
2022-11-29T07:33:00.455Z,38.30
2022-11-29T07:36:05.041Z,36.47
2022-11-29T07:38:49.866Z,40.30
2022-11-29T07:41:26.839Z,40.92
2022-11-29T07:44:11.478Z,36.40
2022-11-29T07:46:37.965Z,41.70
2022-11-29T07:49:05.537Z,42.65
2022-11-29T07:51:32.171Z,40.53
2022-11-29T07:53:58.604Z,40.70
2022-11-29T07:56:25.039Z,36.40
2022-11-29T07:58:51.517Z,37.65
2022-11-29T08:01:18.066Z,35.15
2022-11-29T08:03:44.648Z,50.15
2022-11-29T08:06:11.218Z,51.13
2022-11-29T08:08:43.554Z,43.25
2022-11-29T08:11:12.491Z,40.13
2022-11-29T08:13:38.897Z,38.25
2022-11-29T08:16:05.638Z,40.70
2022-11-29T08:18:32.167Z,35.80
2022-11-29T08:20:58.739Z,35.83
2022-11-29T08:23:25.222Z,38.63
2022-11-29T08:25:59.194Z,37.88
2022-11-29T08:28:25.681Z,36.03
2022-11-29T08:31:00.311Z,34.92
2022-11-29T08:33:26.973Z,33.05
2022-11-29T08:35:53.491Z,35.08
2022-11-29T08:38:19.978Z,35.60
2022-11-29T08:40:46.403Z,31.83
2022-11-29T08:43:12.844Z,33.45
2022-11-29T08:45:39.392Z,33.80
2022-11-29T08:48:06.322Z,35.05
2022-11-29T08:50:32.775Z,43.20
2022-11-29T08:53:17.954Z,52.20
2022-11-29T08:55:46.517Z,35.80
2022-11-29T08:58:17.890Z,35.08
2022-11-29T09:00:46.870Z,33.65
2022-11-29T09:03:32.097Z,31.48
2022-11-29T09:06:10.464Z,33.28
2022-11-29T09:08:39.546Z,33.90
2022-11-29T09:11:17.984Z,35.35
2022-11-29T09:13:47.221Z,32.58
2022-11-29T09:16:18.039Z,36.13
2022-11-29T09:18:51.901Z,34.95
2022-11-29T09:21:18.864Z,37.65
2022-11-29T09:23:46.117Z,36.63
2022-11-29T09:26:18.317Z,36.90
2022-11-29T09:28:47.354Z,37.75
2022-11-29T09:31:17.678Z,33.97
2022-11-29T09:33:45.569Z,33.83
2022-11-29T09:36:12.667Z,31.40
2022-11-29T09:38:39.330Z,36.15
2022-11-29T09:41:21.734Z,37.92
2022-11-29T09:44:17.193Z,36.13
2022-11-29T09:46:55.764Z,34.58
2022-11-29T09:49:42.924Z,34.25
2022-11-29T09:52:57.105Z,35.53
2022-11-29T09:55:26.209Z,33.22
2022-11-29T09:57:58.038Z,37.70
2022-11-29T10:00:26.001Z,35.05
2022-11-29T10:03:04.027Z,34.47
2022-11-29T10:05:46.923Z,33.90
2022-11-29T10:08:25.853Z,35.88
2022-11-29T10:10:58.601Z,31.75
2022-11-29T10:13:35.422Z,33.47
2022-11-29T10:16:13.244Z,34.15
2022-11-29T10:18:56.132Z,33.90
2022-11-29T10:21:29.086Z,34.08
2022-11-29T10:24:01.321Z,37.20
2022-11-29T10:26:33.550Z,32.17
2022-11-29T10:31:32.513Z,33.95
2022-11-29T10:34:01.397Z,34.88
2022-11-29T10:36:40.733Z,28.67
2022-11-29T10:39:37.172Z,30.48
2022-11-29T10:42:06.504Z,30.35
2022-11-29T10:44:33.731Z,32.03
2022-11-29T10:47:07.835Z,27.27
2022-11-29T10:49:37.315Z,27.02
2022-11-29T10:52:03.765Z,27.25
2022-11-29T10:54:46.245Z,30.63
2022-11-29T10:57:17.285Z,30.90
2022-11-29T11:00:00.376Z,30.08
2022-11-29T11:02:27.767Z,27.47
2022-11-29T11:04:54.570Z,28.23
2022-11-29T11:07:29.400Z,26.17
2022-11-29T11:09:57.941Z,27.33
2022-11-29T11:12:29.992Z,26.52
2022-11-29T11:15:26.526Z,27.92
2022-11-29T11:18:20.189Z,26.58
2022-11-29T11:20:54.190Z,29.20
2022-11-29T11:23:30.349Z,26.52
2022-11-29T11:26:02.922Z,27.90
2022-11-29T11:28:34.695Z,26.42
2022-11-29T11:31:09.773Z,24.88
2022-11-29T11:33:48.688Z,22.75
2022-11-29T11:36:30.099Z,24.42
2022-11-29T11:39:13.301Z,22.85
2022-11-29T11:42:02.475Z,25.77
2022-11-29T11:44:52.007Z,23.63
2022-11-29T11:47:20.838Z,25.50
2022-11-29T11:49:53.458Z,26.75
2022-11-29T11:52:27.541Z,23.80
2022-11-29T11:54:57.924Z,25.20
2022-11-29T11:57:26.097Z,23.83
2022-11-29T11:59:54.500Z,21.20
2022-11-29T12:02:40.850Z,22.77
2022-11-29T12:05:18.825Z,22.17
2022-11-29T12:08:08.517Z,23.02
2022-11-29T12:10:40.351Z,23.05
2022-11-29T12:13:18.149Z,19.25
2022-11-29T12:15:49.636Z,20.77
2022-11-29T12:18:43.490Z,20.38
2022-11-29T12:21:14.339Z,23.05
2022-11-29T12:24:04.016Z,20.85
2022-11-29T12:26:57.151Z,21.70
2022-11-29T12:29:29.787Z,21.38
2022-11-29T12:32:25.393Z,20.33
2022-11-29T12:35:30.890Z,18.63
2022-11-29T12:38:19.576Z,17.42
2022-11-29T12:40:52.474Z,19.25
2022-11-29T12:43:34.136Z,22.42
2022-11-29T12:46:10.000Z,22.77
2022-11-29T12:48:54.294Z,22.92
2022-11-29T12:51:29.882Z,21.42
2022-11-29T12:54:27.493Z,22.25
2022-11-29T12:57:09.273Z,23.40
2022-11-29T13:00:03.620Z,26.52
2022-11-29T13:05:16.573Z,26.58
2022-11-29T13:07:49.037Z,25.13
2022-11-29T13:10:34.469Z,30.10
2022-11-29T13:13:33.257Z,26.38
2022-11-29T13:16:30.847Z,28.65
2022-11-29T13:19:17.319Z,28.00
2022-11-29T13:21:46.891Z,28.23
2022-11-29T13:24:47.423Z,27.67
2022-11-29T13:27:23.467Z,29.10
2022-11-29T13:29:53.562Z,26.75
2022-11-29T13:32:45.759Z,30.25
2022-11-29T13:35:26.416Z,30.23
2022-11-29T13:37:58.930Z,26.77
2022-11-29T13:40:37.412Z,26.45
2022-11-29T13:43:39.573Z,34.05
2022-11-29T13:46:37.284Z,29.95
2022-11-29T13:49:03.826Z,31.88
2022-11-29T13:51:37.325Z,29.50
2022-11-29T13:54:27.903Z,27.90
2022-11-29T13:57:09.085Z,31.17
2022-11-29T13:59:45.878Z,30.85
2022-11-29T14:02:43.403Z,26.45
2022-11-29T14:05:26.148Z,30.85
2022-11-29T14:08:48.158Z,29.42
2022-11-29T14:11:26.884Z,33.42
2022-11-29T14:14:24.370Z,31.90
2022-11-29T14:16:54.579Z,32.38
2022-11-29T14:19:28.857Z,32.78
2022-11-29T14:22:09.987Z,28.20
2022-11-29T14:24:36.518Z,31.50
2022-11-29T14:27:06.079Z,29.88
2022-11-29T14:29:50.871Z,29.77
2022-11-29T14:32:24.593Z,29.17
2022-11-29T14:37:34.082Z,33.97
2022-11-29T14:40:11.355Z,33.03
2022-11-29T14:42:46.851Z,34.90
2022-11-29T14:45:32.120Z,32.53
2022-11-29T14:47:59.303Z,36.30
2022-11-29T14:50:38.802Z,41.70
2022-11-29T14:53:07.368Z,43.03
2022-11-29T14:55:37.235Z,35.47
2022-11-29T14:58:18.834Z,36.10
2022-11-29T15:00:48.303Z,33.78
2022-11-29T15:03:24.793Z,44.22
2022-11-29T15:05:55.554Z,34.70
2022-11-29T15:08:37.382Z,38.47
2022-11-29T15:11:35.303Z,36.65
2022-11-29T15:14:25.029Z,36.20
2022-11-29T15:16:57.570Z,33.80
2022-11-29T15:19:57.743Z,37.75
2022-11-29T15:22:32.822Z,34.70
2022-11-29T15:25:12.298Z,40.50
2022-11-29T15:27:52.494Z,46.28
2022-11-29T15:30:33.248Z,71.65
2022-11-29T15:33:01.839Z,71.18
2022-11-29T15:35:31.088Z,60.50
2022-11-29T15:37:57.655Z,63.10
2022-11-29T15:40:34.846Z,76.75
2022-11-29T15:43:13.640Z,49.95
2022-11-29T15:45:40.251Z,38.95
2022-11-29T15:48:31.786Z,42.50
2022-11-29T15:51:24.471Z,38.00
2022-11-29T15:54:13.196Z,37.30
2022-11-29T15:57:00.461Z,35.13
2022-11-29T15:59:51.458Z,35.25
2022-11-29T16:02:26.316Z,41.65
2022-11-29T16:04:56.952Z,37.10
2022-11-29T16:07:25.895Z,37.33
2022-11-29T16:10:01.800Z,37.50
2022-11-29T16:12:28.331Z,37.88
2022-11-29T16:14:56.488Z,35.72
2022-11-29T16:17:34.250Z,37.17
2022-11-29T16:20:19.314Z,39.65
2022-11-29T16:22:45.881Z,37.60
2022-11-29T16:25:17.897Z,39.83
2022-11-29T16:27:45.476Z,47.17
2022-11-29T16:30:23.742Z,39.85
2022-11-29T16:32:57.948Z,42.22
2022-11-29T16:35:27.487Z,35.22
2022-11-29T16:37:54.617Z,36.53
2022-11-29T16:40:31.481Z,34.50
2022-11-29T16:43:03.840Z,38.67
2022-11-29T16:45:34.616Z,40.55
2022-11-29T16:48:02.727Z,45.05
2022-11-29T16:50:31.316Z,37.25
2022-11-29T16:53:37.017Z,34.83
2022-11-29T16:56:05.545Z,38.55
2022-11-29T16:58:34.654Z,37.28
2022-11-29T17:01:31.382Z,39.88
2022-11-29T17:04:01.352Z,42.92
2022-11-29T17:06:29.529Z,41.83
2022-11-29T17:08:58.714Z,40.25
2022-11-29T17:11:25.770Z,44.15
2022-11-29T17:13:52.206Z,38.53
2022-11-29T17:16:23.485Z,39.78
2022-11-29T17:18:52.687Z,42.88
2022-11-29T17:21:24.424Z,47.88
2022-11-29T17:23:52.336Z,42.72
2022-11-29T17:26:19.527Z,40.17
2022-11-29T17:28:47.651Z,42.75
2022-11-29T17:31:17.176Z,44.80
2022-11-29T17:33:43.760Z,39.55
2022-11-29T17:36:12.756Z,43.20
2022-11-29T17:38:39.288Z,42.30
2022-11-29T17:41:10.575Z,46.53
2022-11-29T17:43:37.399Z,53.15
2022-11-29T17:46:23.875Z,44.83
2022-11-29T17:48:52.178Z,53.70
2022-11-29T17:51:50.506Z,53.75
2022-11-29T17:54:08.641Z,49.00
2022-11-29T17:56:35.303Z,43.88
2022-11-29T17:59:03.708Z,41.85
2022-11-29T18:01:33.245Z,38.55
2022-11-29T18:04:02.155Z,41.90
2022-11-29T18:06:34.920Z,48.35
2022-11-29T18:09:03.552Z,45.43
2022-11-29T18:11:46.913Z,45.60
2022-11-29T18:14:16.817Z,43.10
2022-11-29T18:16:45.519Z,42.10
2022-11-29T18:19:14.977Z,39.67
2022-11-29T18:21:41.802Z,35.92
2022-11-29T18:24:09.191Z,44.40
2022-11-29T18:26:37.113Z,42.58
2022-11-29T18:29:05.381Z,37.05
2022-11-29T18:31:34.659Z,49.90
2022-11-29T18:34:02.993Z,49.22
2022-11-29T18:36:32.786Z,48.65
2022-11-29T18:39:00.390Z,47.25
2022-11-29T18:41:30.933Z,44.05
2022-11-29T18:44:06.377Z,43.03
2022-11-29T18:46:35.736Z,39.70
2022-11-29T18:49:04.906Z,39.10
2022-11-29T18:51:32.095Z,43.00
2022-11-29T18:53:59.193Z,42.78
2022-11-29T18:56:29.128Z,38.45
2022-11-29T18:59:03.162Z,41.95
2022-11-29T19:01:32.589Z,38.45
2022-11-29T19:04:00.830Z,42.15
2022-11-29T19:06:38.570Z,38.25
2022-11-29T19:09:07.409Z,41.15
2022-11-29T19:11:34.591Z,37.47
2022-11-29T19:14:04.242Z,42.17
2022-11-29T19:16:33.483Z,41.35
2022-11-29T19:19:01.093Z,41.97
2022-11-29T19:21:31.794Z,40.90
2022-11-29T19:24:00.822Z,42.67
2022-11-29T19:26:29.384Z,41.40
2022-11-29T19:28:56.334Z,46.10
2022-11-29T19:31:27.338Z,51.50
2022-11-29T19:33:57.233Z,49.20
2022-11-29T19:36:26.728Z,50.53
2022-11-29T19:38:55.789Z,47.08
2022-11-29T19:41:29.647Z,50.30
2022-11-29T19:44:00.089Z,46.75
2022-11-29T19:46:32.252Z,43.97
2022-11-29T19:49:00.008Z,41.08
2022-11-29T19:51:29.241Z,43.83
2022-11-29T19:54:00.064Z,39.40
2022-11-29T19:56:27.787Z,59.90
2022-11-29T19:58:55.281Z,51.67
2022-11-29T20:01:28.003Z,48.65
2022-11-29T20:03:58.708Z,45.63
2022-11-29T20:06:29.806Z,52.80
2022-11-29T20:08:57.247Z,50.13
2022-11-29T20:11:25.279Z,47.78
2022-11-29T20:13:55.532Z,56.67
2022-11-29T20:16:23.248Z,56.25
2022-11-29T20:18:53.021Z,46.08
2022-11-29T20:21:31.383Z,49.03
2022-11-29T20:24:00.215Z,46.70
2022-11-29T20:26:28.060Z,44.58
2022-11-29T20:28:54.869Z,42.72
2022-11-29T20:31:23.169Z,46.25
2022-11-29T20:33:52.110Z,49.80
2022-11-29T20:36:49.605Z,48.78
2022-11-29T20:39:25.147Z,48.88
2022-11-29T20:42:00.482Z,62.70
2022-11-29T20:44:48.560Z,153.50
2022-11-29T20:47:20.932Z,139.88
2022-11-29T20:49:48.445Z,121.88
2022-11-29T20:52:47.498Z,58.05
2022-11-29T20:55:14.130Z,69.88
2022-11-29T20:57:40.804Z,60.85
2022-11-29T21:00:12.116Z,62.35
2022-11-29T21:02:39.158Z,48.33
2022-11-29T21:05:06.862Z,56.33
2022-11-29T21:07:33.584Z,58.85
2022-11-29T21:10:04.157Z,52.17
2022-11-29T21:12:31.623Z,66.28
2022-11-29T21:14:58.597Z,58.72
2022-11-29T21:17:30.202Z,72.25
2022-11-29T21:20:00.305Z,64.72
2022-11-29T21:22:37.159Z,65.40
2022-11-29T21:25:25.358Z,130.95
2022-11-29T21:27:54.672Z,49.38
2022-11-29T21:30:23.917Z,49.30
2022-11-29T21:32:53.208Z,48.30
2022-11-29T21:35:19.932Z,49.20
2022-11-29T21:37:46.900Z,48.78
2022-11-29T21:40:14.573Z,51.28
2022-11-29T21:42:41.197Z,51.47
2022-11-29T21:45:15.366Z,49.60
2022-11-29T21:47:43.953Z,52.50
2022-11-29T21:50:11.805Z,50.17
2022-11-29T21:52:38.396Z,48.67
2022-11-29T21:55:05.670Z,47.03
2022-11-29T21:57:32.207Z,49.03
2022-11-29T21:59:58.791Z,48.20
2022-11-29T22:02:27.928Z,44.80
2022-11-29T22:04:54.522Z,47.15
2022-11-29T22:07:21.123Z,67.82
2022-11-29T22:09:47.734Z,62.20
2022-11-29T22:12:33.266Z,55.30
2022-11-29T22:15:00.823Z,44.85
2022-11-29T22:17:27.386Z,46.72
2022-11-29T22:19:54.082Z,43.70
2022-11-29T22:22:20.747Z,47.90
2022-11-29T22:24:49.832Z,44.65
2022-11-29T22:27:18.381Z,44.97
2022-11-29T22:29:45.211Z,49.03
2022-11-29T22:32:11.747Z,46.22
2022-11-29T22:34:38.314Z,45.22
2022-11-29T22:37:04.877Z,45.53
2022-11-29T22:39:31.466Z,45.58
2022-11-29T22:42:00.265Z,49.35
2022-11-29T22:44:26.848Z,50.95
2022-11-29T22:46:53.486Z,49.42
2022-11-29T22:49:20.078Z,46.28
2022-11-29T22:51:46.636Z,44.42
2022-11-29T22:54:16.599Z,50.50
2022-11-29T22:56:47.029Z,49.15
2022-11-29T22:59:16.527Z,50.00
2022-11-29T23:01:43.232Z,50.58
2022-11-29T23:04:12.164Z,52.38
2022-11-29T23:06:43.745Z,48.65
2022-11-29T23:09:16.571Z,46.53
2022-11-29T23:11:44.941Z,49.67
2022-11-29T23:14:12.031Z,53.30
2022-11-29T23:16:41.477Z,48.60
2022-11-29T23:19:08.805Z,46.40
2022-11-29T23:21:38.019Z,49.13
2022-11-29T23:24:05.192Z,47.35
2022-11-29T23:26:37.523Z,49.42
2022-11-29T23:29:05.306Z,48.00
2022-11-29T23:31:31.987Z,52.85
2022-11-29T23:33:58.721Z,48.05
2022-11-29T23:36:25.564Z,49.90
2022-11-29T23:38:52.274Z,49.97
2022-11-29T23:41:18.880Z,47.65
2022-11-29T23:43:47.753Z,49.75
2022-11-29T23:46:19.058Z,53.85
2022-11-29T23:48:48.440Z,52.35
2022-11-29T23:51:15.713Z,57.00
2022-11-29T23:53:44.682Z,51.40
2022-11-29T23:56:14.553Z,52.75
2022-11-29T23:58:42.361Z,54.10
